createdAt,value
2018-05-04T00:01:05.944Z,7.00
2018-05-04T00:07:10.307Z,7.00
2018-05-04T00:13:15.409Z,6.70
2018-05-04T00:19:20.099Z,6.70
2018-05-04T00:25:24.450Z,6.60
2018-05-04T00:31:29.660Z,6.40
2018-05-04T00:37:33.997Z,6.40
2018-05-04T00:43:39.133Z,6.10
2018-05-04T00:49:43.568Z,6.10
2018-05-04T00:55:47.925Z,6.10
2018-05-04T01:01:52.661Z,6.10
2018-05-04T01:07:57.008Z,6.00
2018-05-04T01:14:02.132Z,6.00
2018-05-04T01:20:06.485Z,6.00
2018-05-04T01:26:10.909Z,5.90
2018-05-04T01:32:15.282Z,5.90
2018-05-04T01:38:20.451Z,5.80
2018-05-04T01:44:25.007Z,5.60
2018-05-04T01:50:29.447Z,5.60
2018-05-04T01:56:33.878Z,5.80
2018-05-04T02:02:38.327Z,5.70
2018-05-04T02:08:43.554Z,5.50
2018-05-04T02:14:47.917Z,5.40
2018-05-04T02:20:53.058Z,5.30
2018-05-04T02:26:57.574Z,5.10
2018-05-04T02:33:02.783Z,5.00
2018-05-04T02:39:07.153Z,5.00
2018-05-04T02:45:11.614Z,5.00
2018-05-04T02:51:16.895Z,4.80
2018-05-04T02:57:22.015Z,4.80
2018-05-04T03:03:27.152Z,4.60
2018-05-04T03:09:31.503Z,4.60
2018-05-04T03:15:35.853Z,4.60
2018-05-04T03:21:41.059Z,4.60
2018-05-04T03:27:45.424Z,4.60
2018-05-04T03:33:49.920Z,4.60
2018-05-04T03:39:54.429Z,4.60
2018-05-04T03:45:58.852Z,4.50
2018-05-04T03:52:03.998Z,4.80
2018-05-04T03:58:26.196Z,4.70
2018-05-04T04:04:30.651Z,4.80
2018-05-04T04:10:35.036Z,4.80
2018-05-04T04:16:39.457Z,4.90
2018-05-04T04:22:44.591Z,5.00
2018-05-04T04:28:50.721Z,4.90
2018-05-04T04:34:56.001Z,5.00
2018-05-04T04:41:01.998Z,5.00
2018-05-04T04:47:06.439Z,5.10
2018-05-04T04:53:10.834Z,5.20
2018-05-04T04:59:15.933Z,5.50
2018-05-04T05:05:20.749Z,5.50
2018-05-04T05:11:25.323Z,5.70
2018-05-04T05:17:30.485Z,6.20
2018-05-04T05:23:34.856Z,6.10
2018-05-04T05:29:39.966Z,6.60
2018-05-04T05:35:44.334Z,6.60
2018-05-04T05:41:49.620Z,7.10
2018-05-04T05:47:54.445Z,7.10
2018-05-04T05:53:58.833Z,7.30
2018-05-04T06:00:03.196Z,7.60
2018-05-04T06:06:07.611Z,7.90
2018-05-04T06:12:11.949Z,8.40
2018-05-04T06:18:16.390Z,8.70
2018-05-04T06:24:21.584Z,9.00
2018-05-04T06:30:26.725Z,9.50
2018-05-04T06:36:31.115Z,9.50
2018-05-04T06:42:35.498Z,9.70
2018-05-04T06:48:39.869Z,10.00
2018-05-04T06:54:44.248Z,10.50
2018-05-04T07:00:48.719Z,10.70
2018-05-04T07:06:53.189Z,11.20
2018-05-04T07:12:57.582Z,11.60
2018-05-04T07:19:02.836Z,12.30
2018-05-04T07:25:07.223Z,12.20
2018-05-04T07:31:11.593Z,12.70
2018-05-04T07:37:15.957Z,13.30
2018-05-04T07:43:20.639Z,13.70
2018-05-04T07:49:25.802Z,14.80
2018-05-04T07:55:30.171Z,14.70
2018-05-04T08:01:34.529Z,15.30
2018-05-04T08:07:39.663Z,15.90
2018-05-04T08:13:44.015Z,15.90
2018-05-04T08:19:48.395Z,16.30
2018-05-04T08:25:52.829Z,16.80
2018-05-04T08:31:57.250Z,16.70
2018-05-04T08:38:01.618Z,16.70
2018-05-04T08:44:05.990Z,16.60
2018-05-04T08:50:10.344Z,17.10
2018-05-04T08:56:15.497Z,17.70
2018-05-04T09:02:20.077Z,17.70
2018-05-04T09:08:25.263Z,18.60
2018-05-04T09:14:29.624Z,18.50
2018-05-04T09:20:33.986Z,18.80
2018-05-04T09:26:38.360Z,19.20
2018-05-04T09:32:42.733Z,19.30
2018-05-04T09:38:47.102Z,19.20
2018-05-04T09:44:51.472Z,19.40
2018-05-04T09:50:55.960Z,19.80
2018-05-04T09:57:00.328Z,20.00
2018-05-04T10:03:05.561Z,20.90
2018-05-04T10:09:10.014Z,20.90
2018-05-04T10:15:14.376Z,20.70
2018-05-04T10:21:19.123Z,21.40
2018-05-04T10:27:23.906Z,21.80
2018-05-04T10:33:28.334Z,21.70
2018-05-04T10:39:32.723Z,21.50
2018-05-04T10:45:37.172Z,21.90
2018-05-04T10:51:41.566Z,23.00
2018-05-04T10:57:45.946Z,23.90
2018-05-04T11:03:50.951Z,25.10
2018-05-04T11:09:55.393Z,25.70
2018-05-04T11:15:59.863Z,26.00
2018-05-04T11:22:04.294Z,25.50
2018-05-04T11:28:08.684Z,24.90
2018-05-04T11:34:13.036Z,25.30
2018-05-04T11:40:17.534Z,25.00
2018-05-04T11:46:22.968Z,25.90
2018-05-04T11:52:27.350Z,26.10
2018-05-04T11:58:31.719Z,26.20
2018-05-04T12:04:36.111Z,26.00
2018-05-04T12:10:40.642Z,26.30
2018-05-04T12:16:45.179Z,26.10
2018-05-04T12:22:49.864Z,26.50
2018-05-04T12:28:54.275Z,26.10
2018-05-04T12:34:58.630Z,26.30
2018-05-04T12:41:03.070Z,27.70
2018-05-04T12:47:07.487Z,28.00
2018-05-04T12:53:11.817Z,28.20
2018-05-04T12:59:16.190Z,29.30
2018-05-04T13:05:20.835Z,29.10
2018-05-04T13:11:25.299Z,29.00
2018-05-04T13:17:29.756Z,28.40
2018-05-04T13:23:34.842Z,28.40
2018-05-04T13:29:39.216Z,28.40
2018-05-04T13:35:43.572Z,27.70
2018-05-04T13:41:47.938Z,27.70
2018-05-04T13:47:52.367Z,27.10
2018-05-04T13:53:56.827Z,26.70
2018-05-04T14:00:01.260Z,27.00
2018-05-04T14:06:05.620Z,26.70
2018-05-04T14:12:11.079Z,26.80
2018-05-04T14:18:15.438Z,26.70
2018-05-04T14:24:20.072Z,26.60
2018-05-04T14:30:25.223Z,27.20
2018-05-04T14:36:29.577Z,27.20
2018-05-04T14:42:33.938Z,27.50
2018-05-04T14:48:38.407Z,27.40
2018-05-04T14:54:43.539Z,27.50
2018-05-04T15:00:47.891Z,27.50
2018-05-04T15:06:52.412Z,27.50
2018-05-04T15:12:56.897Z,27.10
2018-05-04T15:19:01.262Z,27.70
2018-05-04T15:25:05.720Z,27.60
2018-05-04T15:31:10.009Z,28.10
2018-05-04T15:37:15.356Z,28.30
2018-05-04T15:43:19.796Z,27.40
2018-05-04T15:49:24.267Z,26.90
2018-05-04T15:55:28.665Z,27.60
2018-05-04T16:01:33.795Z,27.00
2018-05-04T16:07:38.151Z,27.00
2018-05-04T16:13:42.604Z,27.50
2018-05-04T16:19:46.895Z,27.50
2018-05-04T16:25:51.291Z,27.30
2018-05-04T16:31:55.718Z,26.70
2018-05-04T16:38:00.093Z,26.70
2018-05-04T16:44:04.474Z,27.50
2018-05-04T16:50:09.593Z,25.90
2018-05-04T16:56:13.975Z,25.80
2018-05-04T17:02:18.352Z,26.10
2018-05-04T17:08:23.300Z,26.40
2018-05-04T17:14:27.677Z,25.70
2018-05-04T17:20:32.067Z,25.60
2018-05-04T17:26:37.197Z,23.80
2018-05-04T17:32:41.599Z,23.80
2018-05-04T17:38:46.004Z,23.00
2018-05-04T17:44:51.710Z,23.20
2018-05-04T17:50:56.940Z,23.00
2018-05-04T17:57:01.287Z,23.00
2018-05-04T18:03:06.430Z,22.30
2018-05-04T18:09:10.795Z,22.30
2018-05-04T18:15:15.272Z,22.40
2018-05-04T18:21:19.841Z,21.90
2018-05-04T18:27:24.260Z,21.20
2018-05-04T18:33:28.835Z,20.80
2018-05-04T18:39:33.228Z,19.90
2018-05-04T18:45:37.648Z,18.50
2018-05-04T18:51:42.010Z,17.30
2018-05-04T18:57:46.467Z,16.10
2018-05-04T19:03:51.641Z,15.00
2018-05-04T19:09:56.004Z,14.90
2018-05-04T19:16:01.881Z,14.70
2018-05-04T19:22:06.248Z,14.70
2018-05-04T19:28:10.776Z,14.50
2018-05-04T19:34:15.151Z,14.20
2018-05-04T19:40:19.682Z,14.00
2018-05-04T19:46:24.238Z,13.80
2018-05-04T19:52:29.023Z,13.60
2018-05-04T19:58:33.544Z,13.40
2018-05-04T20:04:37.938Z,13.20
2018-05-04T20:10:42.363Z,13.10
2018-05-04T20:16:46.762Z,12.90
2018-05-04T20:22:51.469Z,12.80
2018-05-04T20:28:56.073Z,12.50
2018-05-04T20:35:00.408Z,12.30
2018-05-04T20:41:04.800Z,12.20
2018-05-04T20:47:09.152Z,12.20
2018-05-04T20:53:13.509Z,12.10
2018-05-04T20:59:17.889Z,12.00
2018-05-04T21:05:22.393Z,12.00
2018-05-04T21:11:26.780Z,11.80
2018-05-04T21:17:31.211Z,11.40
2018-05-04T21:23:35.685Z,11.20
2018-05-04T21:29:40.045Z,11.00
2018-05-04T21:35:44.416Z,10.60
2018-05-04T21:41:48.789Z,10.50
2018-05-04T21:47:53.467Z,10.30
2018-05-04T21:53:57.852Z,10.20
2018-05-04T22:00:02.231Z,10.00
2018-05-04T22:06:06.621Z,10.00
2018-05-04T22:12:10.987Z,9.80
2018-05-04T22:18:15.355Z,9.90
2018-05-04T22:24:20.000Z,9.80
2018-05-04T22:30:24.636Z,9.80
2018-05-04T22:36:28.981Z,9.70
2018-05-04T22:42:34.111Z,9.70
2018-05-04T22:48:38.479Z,9.70
2018-05-04T22:54:42.935Z,10.00
2018-05-04T23:00:47.317Z,10.20
2018-05-04T23:06:52.495Z,10.50
2018-05-04T23:12:56.868Z,10.50
2018-05-04T23:19:02.135Z,10.60
2018-05-04T23:25:06.549Z,10.60
2018-05-04T23:31:10.984Z,10.70
2018-05-04T23:37:16.135Z,10.60
2018-05-04T23:43:21.330Z,10.60
2018-05-04T23:49:25.710Z,10.40
2018-05-04T23:55:30.085Z,10.20
